createdAt,value
2018-02-03T00:01:45.142Z,28.04
2018-02-03T00:04:15.591Z,27.88
2018-02-03T00:06:45.868Z,27.51
2018-02-03T00:09:16.138Z,27.03
2018-02-03T00:11:46.479Z,26.99
2018-02-03T00:14:16.807Z,27.19
2018-02-03T00:16:47.172Z,27.12
2018-02-03T00:19:17.452Z,27.20
2018-02-03T00:21:47.683Z,27.44
2018-02-03T00:24:17.981Z,27.24
2018-02-03T00:26:48.261Z,26.95
2018-02-03T00:29:18.524Z,27.15
2018-02-03T00:31:48.988Z,27.26
2018-02-03T00:34:19.434Z,26.94
2018-02-03T00:36:50.367Z,26.85
2018-02-03T00:39:20.656Z,26.51
2018-02-03T00:41:50.975Z,26.71
2018-02-03T00:44:21.269Z,26.87
2018-02-03T00:46:51.538Z,26.53
2018-02-03T00:49:21.839Z,26.27
2018-02-03T00:51:52.838Z,25.94
2018-02-03T00:54:23.118Z,26.04
2018-02-03T00:56:53.424Z,26.38
2018-02-03T00:59:32.136Z,25.87
2018-02-03T01:02:03.257Z,25.96
2018-02-03T01:04:33.604Z,25.72
2018-02-03T01:07:03.942Z,25.84
2018-02-03T01:09:34.257Z,25.43
2018-02-03T01:12:04.591Z,25.29
2018-02-03T01:14:35.788Z,25.40
2018-02-03T01:17:06.153Z,25.25
2018-02-03T01:19:36.415Z,24.88
2018-02-03T01:22:06.730Z,24.92
2018-02-03T01:24:37.052Z,24.80
2018-02-03T01:27:08.324Z,24.43
2018-02-03T01:29:39.820Z,24.25
2018-02-03T01:32:10.180Z,24.62
2018-02-03T01:34:40.669Z,24.71
2018-02-03T01:37:11.860Z,24.45
2018-02-03T01:39:42.161Z,24.20
2018-02-03T01:42:13.648Z,24.31
2018-02-03T01:44:45.525Z,24.25
2018-02-03T01:47:15.786Z,24.11
2018-02-03T01:49:46.065Z,23.81
2018-02-03T01:52:16.346Z,23.71
2018-02-03T01:54:46.608Z,23.87
2018-02-03T01:57:16.898Z,23.65
2018-02-03T01:59:47.153Z,23.75
2018-02-03T02:02:17.438Z,23.92
2018-02-03T02:04:47.934Z,23.76
2018-02-03T02:07:18.163Z,23.72
2018-02-03T02:09:48.523Z,23.63
2018-02-03T02:12:18.777Z,23.26
2018-02-03T02:14:49.033Z,23.12
2018-02-03T02:17:20.432Z,23.19
2018-02-03T02:19:50.746Z,23.17
2018-02-03T02:22:21.135Z,23.17
2018-02-03T02:24:51.365Z,23.31
2018-02-03T02:27:21.639Z,23.15
2018-02-03T02:29:53.363Z,22.75
2018-02-03T02:32:23.669Z,22.83
2018-02-03T02:34:54.228Z,22.72
2018-02-03T02:37:25.288Z,22.76
2018-02-03T02:39:58.763Z,22.99
2018-02-03T02:42:29.499Z,22.97
2018-02-03T02:44:59.792Z,22.69
2018-02-03T02:47:31.070Z,23.04
2018-02-03T02:50:01.512Z,23.04
2018-02-03T02:52:32.712Z,22.72
2018-02-03T02:55:05.040Z,22.59
2018-02-03T02:57:35.284Z,22.37
2018-02-03T03:00:05.728Z,22.27
2018-02-03T03:02:36.093Z,22.36
2018-02-03T03:05:05.992Z,22.06
2018-02-03T03:07:36.261Z,22.13
2018-02-03T03:10:06.871Z,22.21
2018-02-03T03:12:37.145Z,22.31
2018-02-03T03:15:07.472Z,21.88
2018-02-03T03:17:37.730Z,21.91
2018-02-03T03:20:08.022Z,21.90
2018-02-03T03:22:38.262Z,21.81
2018-02-03T03:25:09.457Z,21.91
2018-02-03T03:27:39.706Z,21.79
2018-02-03T03:30:10.468Z,21.93
2018-02-03T03:32:41.954Z,22.20
2018-02-03T03:35:12.218Z,22.05
2018-02-03T03:37:42.469Z,21.99
2018-02-03T03:40:14.544Z,21.69
2018-02-03T03:42:44.963Z,21.66
2018-02-03T03:45:18.900Z,21.56
2018-02-03T03:47:49.684Z,21.53
2018-02-03T03:50:19.937Z,21.37
2018-02-03T03:52:51.572Z,21.70
2018-02-03T03:55:23.716Z,21.92
2018-02-03T03:57:53.968Z,21.84
2018-02-03T04:00:24.218Z,21.53
2018-02-03T04:02:54.592Z,21.49
2018-02-03T04:05:24.847Z,21.43
2018-02-03T04:07:55.108Z,21.40
2018-02-03T04:10:25.885Z,21.38
2018-02-03T04:12:56.140Z,21.38
2018-02-03T04:15:26.441Z,21.50
2018-02-03T04:17:56.743Z,21.58
2018-02-03T04:20:27.015Z,21.57
2018-02-03T04:22:57.304Z,21.25
2018-02-03T04:25:27.620Z,21.11
2018-02-03T04:27:58.813Z,21.07
2018-02-03T04:30:29.233Z,21.19
2018-02-03T04:32:59.483Z,21.49
2018-02-03T04:35:29.934Z,21.19
2018-02-03T04:38:00.181Z,21.38
2018-02-03T04:40:30.406Z,21.56
2018-02-03T04:43:00.850Z,21.47
2018-02-03T04:45:31.115Z,21.01
2018-02-03T04:48:01.387Z,20.92
2018-02-03T04:50:31.629Z,20.94
2018-02-03T04:53:01.888Z,21.06
2018-02-03T04:55:32.117Z,20.90
2018-02-03T04:58:02.405Z,20.81
2018-02-03T05:00:33.646Z,21.04
2018-02-03T05:03:05.283Z,21.34
2018-02-03T05:05:35.536Z,21.05
2018-02-03T05:08:05.795Z,20.84
2018-02-03T05:10:36.065Z,20.53
2018-02-03T05:13:06.334Z,20.41
2018-02-03T05:15:36.600Z,20.29
2018-02-03T05:18:06.847Z,20.27
2018-02-03T05:20:37.137Z,20.38
2018-02-03T05:23:07.425Z,20.83
2018-02-03T05:25:37.608Z,20.78
2018-02-03T05:28:07.864Z,20.54
2018-02-03T05:30:39.294Z,20.20
2018-02-03T05:33:10.804Z,19.95
2018-02-03T05:35:41.161Z,20.10
2018-02-03T05:38:11.412Z,20.23
2018-02-03T05:40:41.998Z,20.29
2018-02-03T05:43:12.613Z,19.95
2018-02-03T05:45:42.856Z,19.99
2018-02-03T05:48:13.183Z,20.26
2018-02-03T05:50:43.521Z,19.87
2018-02-03T05:53:13.833Z,19.49
2018-02-03T05:55:44.277Z,19.44
2018-02-03T05:58:14.587Z,19.39
2018-02-03T06:00:44.842Z,19.34
2018-02-03T06:03:15.113Z,18.92
2018-02-03T06:05:45.364Z,18.81
2018-02-03T06:08:15.823Z,19.53
2018-02-03T06:10:46.081Z,19.55
2018-02-03T06:13:16.325Z,19.60
2018-02-03T06:15:46.573Z,19.28
2018-02-03T06:18:16.804Z,19.24
2018-02-03T06:20:47.213Z,18.96
2018-02-03T06:23:17.527Z,19.14
2018-02-03T06:25:47.787Z,18.78
2018-02-03T06:28:18.079Z,18.71
2018-02-03T06:30:48.318Z,18.68
2018-02-03T06:33:18.617Z,19.57
2018-02-03T06:35:48.877Z,19.27
2018-02-03T06:38:19.112Z,18.81
2018-02-03T06:40:49.388Z,18.87
2018-02-03T06:43:19.665Z,19.03
2018-02-03T06:45:50.037Z,18.74
2018-02-03T06:48:20.307Z,18.28
2018-02-03T06:50:50.548Z,17.88
2018-02-03T06:53:20.922Z,18.23
2018-02-03T06:55:51.161Z,18.75
2018-02-03T06:58:21.453Z,18.49
2018-02-03T07:00:51.710Z,18.23
2018-02-03T07:03:22.056Z,18.07
2018-02-03T07:05:52.413Z,17.80
2018-02-03T07:08:22.849Z,17.82
2018-02-03T07:10:53.183Z,18.31
2018-02-03T07:13:23.448Z,18.12
2018-02-03T07:15:53.678Z,18.63
2018-02-03T07:18:23.953Z,18.99
2018-02-03T07:20:54.196Z,18.71
2018-02-03T07:23:25.052Z,18.31
2018-02-03T07:25:55.287Z,18.12
2018-02-03T07:28:25.517Z,18.01
2018-02-03T07:30:55.756Z,17.91
2018-02-03T07:33:26.067Z,18.05
2018-02-03T07:35:56.337Z,18.36
2018-02-03T07:38:26.585Z,18.55
2018-02-03T07:40:56.956Z,18.11
2018-02-03T07:43:27.264Z,17.66
2018-02-03T07:45:57.502Z,17.40
2018-02-03T07:48:27.766Z,17.48
2018-02-03T07:50:58.518Z,17.30
2018-02-03T07:53:28.818Z,17.80
2018-02-03T07:55:59.104Z,17.33
2018-02-03T07:58:29.393Z,16.87
2018-02-03T08:00:59.771Z,17.56
2018-02-03T08:03:30.080Z,17.42
2018-02-03T08:06:00.444Z,17.18
2018-02-03T08:08:31.684Z,16.73
2018-02-03T08:11:02.012Z,16.91
2018-02-03T08:13:32.254Z,16.91
2018-02-03T08:16:03.476Z,16.84
2018-02-03T08:18:34.382Z,16.74
2018-02-03T08:21:05.634Z,16.68
2018-02-03T08:23:37.444Z,17.56
2018-02-03T08:26:08.535Z,18.15
2018-02-03T08:28:39.808Z,18.76
2018-02-03T08:31:10.850Z,18.21
2018-02-03T08:33:42.172Z,17.54
2018-02-03T08:36:13.273Z,17.90
2018-02-03T08:38:44.036Z,17.56
2018-02-03T08:41:15.463Z,17.97
2018-02-03T08:43:46.731Z,18.65
2018-02-03T08:46:18.148Z,17.35
2018-02-03T08:48:49.163Z,16.88
2018-02-03T08:51:19.875Z,17.66
2018-02-03T08:53:50.936Z,16.59
2018-02-03T08:56:21.804Z,17.12
2018-02-03T08:58:56.626Z,16.49
2018-02-03T09:01:27.621Z,16.56
2018-02-03T09:03:58.522Z,17.08
2018-02-03T09:06:29.683Z,17.49
2018-02-03T09:09:00.848Z,17.47
2018-02-03T09:11:32.448Z,17.40
2018-02-03T09:14:04.180Z,18.00
2018-02-03T09:16:35.891Z,16.91
2018-02-03T09:19:06.838Z,16.62
2018-02-03T09:21:38.195Z,16.81
2018-02-03T09:24:09.468Z,16.21
2018-02-03T09:26:40.509Z,16.58
2018-02-03T09:29:11.858Z,16.69
2018-02-03T09:31:43.207Z,16.25
2018-02-03T09:34:14.399Z,17.02
2018-02-03T09:36:45.490Z,16.75
2018-02-03T09:39:16.589Z,16.76
2018-02-03T09:41:47.779Z,16.51
2018-02-03T09:44:19.128Z,16.23
2018-02-03T09:46:50.680Z,17.15
2018-02-03T09:49:22.009Z,16.00
2018-02-03T09:51:53.584Z,16.06
2018-02-03T09:54:24.557Z,15.61
2018-02-03T09:56:55.838Z,16.00
2018-02-03T09:59:26.394Z,16.92
2018-02-03T10:01:57.767Z,16.80
2018-02-03T10:04:28.807Z,16.84
2018-02-03T10:07:00.053Z,16.93
2018-02-03T10:09:30.971Z,16.25
2018-02-03T10:12:02.053Z,16.10
2018-02-03T10:14:33.468Z,16.18
2018-02-03T10:17:05.024Z,16.43
2018-02-03T10:19:36.162Z,16.70
2018-02-03T10:22:07.476Z,16.42
2018-02-03T10:24:38.448Z,15.62
2018-02-03T10:27:09.931Z,15.53
2018-02-03T10:29:41.151Z,16.09
2018-02-03T10:32:12.705Z,15.94
2018-02-03T10:34:43.843Z,16.29
2018-02-03T10:37:15.190Z,16.65
2018-02-03T10:39:46.746Z,17.00
2018-02-03T10:42:18.275Z,15.83
2018-02-03T10:44:49.397Z,15.78
2018-02-03T10:47:20.308Z,15.68
2018-02-03T10:49:51.294Z,16.46
2018-02-03T10:52:22.020Z,16.13
2018-02-03T10:54:53.373Z,15.57
2018-02-03T10:57:24.253Z,15.17
2018-02-03T10:59:55.857Z,14.70
2018-02-03T11:02:26.929Z,14.73
2018-02-03T11:04:58.352Z,14.99
2018-02-03T11:07:29.893Z,15.54
2018-02-03T11:10:01.155Z,15.74
2018-02-03T11:12:32.121Z,15.97
2018-02-03T11:15:03.528Z,16.21
2018-02-03T11:17:35.091Z,16.38
2018-02-03T11:20:06.670Z,16.12
2018-02-03T11:22:38.196Z,16.48
2018-02-03T11:25:09.746Z,16.88
2018-02-03T11:27:41.295Z,17.10
2018-02-03T11:30:12.788Z,17.03
2018-02-03T11:32:44.895Z,16.67
2018-02-03T11:35:16.090Z,17.53
2018-02-03T11:37:47.497Z,17.37
2018-02-03T11:40:18.866Z,17.50
2018-02-03T11:42:49.805Z,17.46
2018-02-03T11:45:21.363Z,17.10
2018-02-03T11:47:52.098Z,16.14
2018-02-03T11:50:23.794Z,15.88
2018-02-03T11:52:54.770Z,15.68
2018-02-03T11:55:25.874Z,15.35
2018-02-03T11:57:56.467Z,15.59
2018-02-03T12:00:27.741Z,15.84
2018-02-03T12:02:58.482Z,16.42
2018-02-03T12:05:29.816Z,16.88
2018-02-03T12:08:00.959Z,16.57
2018-02-03T12:10:32.155Z,17.27
2018-02-03T12:13:03.476Z,17.24
2018-02-03T12:15:34.879Z,16.78
2018-02-03T12:18:05.998Z,16.69
2018-02-03T12:20:38.866Z,16.94
2018-02-03T12:23:10.072Z,16.82
2018-02-03T12:25:41.350Z,17.20
2018-02-03T12:28:12.591Z,17.57
2018-02-03T12:30:45.764Z,17.57
2018-02-03T12:33:17.001Z,17.24
2018-02-03T12:35:49.090Z,17.36
2018-02-03T12:38:20.722Z,17.54
2018-02-03T12:40:52.003Z,17.74
2018-02-03T12:43:23.155Z,17.57
2018-02-03T12:45:54.765Z,17.10
2018-02-03T12:48:25.904Z,17.24
2018-02-03T12:50:57.000Z,17.37
2018-02-03T12:53:28.607Z,17.31
2018-02-03T12:55:59.669Z,16.79
2018-02-03T12:58:31.102Z,15.91
2018-02-03T13:01:02.181Z,16.24
2018-02-03T13:03:33.534Z,16.47
2018-02-03T13:06:04.613Z,16.93
2018-02-03T13:08:35.692Z,17.15
2018-02-03T13:11:06.684Z,17.21
2018-02-03T13:13:37.717Z,16.87
2018-02-03T13:16:09.058Z,16.68
2018-02-03T13:18:40.172Z,16.64
2018-02-03T13:21:11.368Z,17.20
2018-02-03T13:23:42.451Z,17.06
2018-02-03T13:26:13.240Z,17.60
2018-02-03T13:28:44.428Z,17.92
2018-02-03T13:31:15.477Z,17.81
2018-02-03T13:33:46.802Z,18.10
2018-02-03T13:36:17.405Z,17.97
2018-02-03T13:38:48.454Z,17.76
2018-02-03T13:41:19.511Z,17.77
2018-02-03T13:43:50.367Z,17.68
2018-02-03T13:46:21.306Z,17.77
2018-02-03T13:48:52.164Z,17.81
2018-02-03T13:51:23.475Z,17.90
2018-02-03T13:53:54.125Z,17.63
2018-02-03T13:56:25.078Z,17.42
2018-02-03T13:58:56.629Z,17.26
2018-02-03T14:01:27.702Z,17.16
2018-02-03T14:03:58.642Z,17.19
2018-02-03T14:06:30.327Z,16.70
2018-02-03T14:09:02.086Z,16.83
2018-02-03T14:11:33.168Z,16.95
2018-02-03T14:14:04.522Z,17.07
2018-02-03T14:16:35.690Z,17.70
2018-02-03T14:19:06.832Z,17.36
2018-02-03T14:21:38.336Z,16.83
2018-02-03T14:24:14.071Z,16.35
2018-02-03T14:26:45.421Z,16.68
2018-02-03T14:29:17.176Z,16.78
2018-02-03T14:31:48.320Z,16.77
2018-02-03T14:34:19.673Z,16.50
2018-02-03T14:36:51.016Z,16.39
2018-02-03T14:39:22.052Z,16.42
2018-02-03T14:41:53.276Z,16.62
2018-02-03T14:44:24.861Z,16.86
2018-02-03T14:46:56.201Z,17.26
2018-02-03T14:49:27.250Z,17.37
2018-02-03T14:51:58.276Z,17.40
2018-02-03T14:54:29.423Z,16.64
2018-02-03T14:57:00.505Z,16.61
2018-02-03T14:59:31.441Z,16.48
2018-02-03T15:02:02.633Z,16.42
2018-02-03T15:04:34.105Z,16.37
2018-02-03T15:07:05.553Z,16.30
2018-02-03T15:09:37.099Z,16.54
2018-02-03T15:12:08.712Z,16.19
2018-02-03T15:14:39.843Z,16.59
2018-02-03T15:17:11.180Z,16.47
2018-02-03T15:19:41.996Z,16.01
2018-02-03T15:22:13.246Z,16.56
2018-02-03T15:24:44.820Z,16.03
2018-02-03T15:27:15.862Z,15.77
2018-02-03T15:29:46.883Z,16.45
2018-02-03T15:32:17.943Z,16.83
2018-02-03T15:34:49.166Z,17.21
2018-02-03T15:37:20.424Z,17.25
2018-02-03T15:39:51.772Z,17.19
2018-02-03T15:42:22.941Z,17.22
2018-02-03T15:44:54.189Z,16.98
2018-02-03T15:47:25.502Z,17.07
2018-02-03T15:49:56.743Z,17.01
2018-02-03T15:52:27.980Z,16.81
2018-02-03T15:54:59.279Z,17.00
2018-02-03T15:57:30.283Z,17.02
2018-02-03T16:00:01.497Z,17.05
2018-02-03T16:02:32.987Z,17.05
2018-02-03T16:05:04.348Z,17.25
2018-02-03T16:07:36.106Z,17.45
2018-02-03T16:10:07.635Z,17.44
2018-02-03T16:12:38.703Z,17.57
2018-02-03T16:15:09.934Z,17.78
2018-02-03T16:17:41.132Z,18.04
2018-02-03T16:20:12.194Z,18.13
2018-02-03T16:22:43.145Z,18.08
2018-02-03T16:25:14.508Z,18.28
2018-02-03T16:27:45.608Z,18.62
2018-02-03T16:30:16.492Z,18.50
2018-02-03T16:32:47.997Z,18.66
2018-02-03T16:35:19.494Z,18.97
2018-02-03T16:37:50.231Z,19.34
2018-02-03T16:40:21.570Z,19.70
2018-02-03T16:42:53.720Z,19.77
2018-02-03T16:45:24.887Z,19.99
2018-02-03T16:47:56.218Z,20.22
2018-02-03T16:50:27.586Z,20.25
2018-02-03T16:52:58.628Z,20.42
2018-02-03T16:55:29.601Z,20.63
2018-02-03T16:58:00.581Z,20.74
2018-02-03T17:00:31.521Z,20.97
2018-02-03T17:03:02.688Z,21.10
2018-02-03T17:05:33.834Z,21.29
2018-02-03T17:08:04.572Z,21.48
2018-02-03T17:10:36.330Z,21.66
2018-02-03T17:13:07.440Z,21.70
2018-02-03T17:15:38.406Z,21.84
2018-02-03T17:18:09.977Z,21.86
2018-02-03T17:20:41.041Z,21.89
2018-02-03T17:23:12.015Z,22.10
2018-02-03T17:25:43.186Z,22.45
2018-02-03T17:28:14.542Z,22.34
2018-02-03T17:30:45.478Z,22.51
2018-02-03T17:33:16.588Z,22.62
2018-02-03T17:35:47.571Z,22.83
2018-02-03T17:38:23.517Z,23.12
2018-02-03T17:40:54.516Z,23.12
2018-02-03T17:43:25.409Z,23.29
2018-02-03T17:59:26.384Z,24.41
2018-02-03T18:01:57.293Z,24.67
2018-02-03T18:04:28.297Z,24.93
2018-02-03T18:07:04.547Z,25.12
2018-02-03T18:09:35.466Z,25.25
2018-02-03T18:12:06.619Z,25.20
2018-02-03T18:14:37.514Z,25.25
2018-02-03T18:17:08.323Z,25.73
2018-02-03T18:19:39.452Z,25.84
2018-02-03T18:22:11.058Z,26.07
2018-02-03T18:24:41.968Z,25.89
2018-02-03T18:27:13.106Z,25.84
2018-02-03T18:29:44.012Z,26.21
2018-02-03T18:32:16.121Z,26.20
2018-02-03T18:34:47.072Z,26.88
2018-02-03T18:37:18.021Z,26.97
2018-02-03T18:39:49.056Z,27.14
2018-02-03T18:42:20.101Z,27.30
2018-02-03T18:44:51.273Z,27.54
2018-02-03T18:47:22.414Z,27.89
2018-02-03T18:49:53.793Z,27.95
2018-02-03T18:52:24.983Z,27.84
2018-02-03T18:54:56.675Z,27.84
2018-02-03T18:57:27.849Z,27.88
2018-02-03T18:59:58.930Z,28.38
2018-02-03T19:02:29.865Z,28.79
2018-02-03T19:05:01.064Z,28.56
2018-02-03T19:07:31.898Z,28.94
2018-02-03T19:10:03.400Z,28.68
2018-02-03T19:12:35.181Z,28.54
2018-02-03T19:15:06.489Z,29.03
2018-02-03T19:17:38.081Z,29.02
2018-02-03T19:20:09.668Z,28.38
2018-02-03T19:22:40.688Z,28.90
2018-02-03T19:25:11.959Z,29.42
2018-02-03T19:27:43.242Z,29.84
2018-02-03T19:30:14.840Z,29.67
2018-02-03T19:32:45.887Z,29.19
2018-02-03T19:35:17.751Z,30.50
2018-02-03T19:37:49.231Z,31.52
2018-02-03T19:40:20.625Z,31.95
2018-02-03T19:42:52.007Z,31.50
2018-02-03T19:45:22.868Z,31.83
2018-02-03T19:47:53.682Z,31.85
2018-02-03T19:50:25.196Z,31.68
2018-02-03T19:52:56.175Z,31.31
2018-02-03T19:55:27.426Z,32.00
2018-02-03T19:57:58.490Z,30.92
2018-02-03T20:00:29.803Z,30.91
2018-02-03T20:03:00.880Z,31.34
2018-02-03T20:05:32.022Z,31.56
2018-02-03T20:08:03.027Z,32.59
2018-02-03T20:10:34.361Z,32.12
2018-02-03T20:13:05.316Z,31.44
2018-02-03T20:15:36.670Z,31.78
2018-02-03T20:18:07.306Z,31.81
2018-02-03T20:20:38.494Z,32.09
2018-02-03T20:23:09.484Z,32.08
2018-02-03T20:25:40.811Z,32.59
2018-02-03T20:28:12.145Z,32.06
2018-02-03T20:30:43.233Z,32.38
2018-02-03T20:33:14.157Z,32.79
2018-02-03T20:35:45.315Z,32.72
2018-02-03T20:38:17.339Z,32.62
2018-02-03T20:40:48.227Z,33.16
2018-02-03T20:43:19.452Z,32.91
2018-02-03T20:45:50.802Z,32.91
2018-02-03T20:48:20.988Z,33.25
2018-02-03T20:50:51.290Z,33.21
2018-02-03T20:53:21.691Z,33.09
2018-02-03T20:55:51.989Z,33.06
2018-02-03T20:58:22.290Z,33.01
2018-02-03T21:00:52.632Z,32.18
2018-02-03T21:03:22.904Z,32.46
2018-02-03T21:05:53.222Z,32.81
2018-02-03T21:08:23.535Z,31.97
2018-02-03T21:10:53.863Z,31.88
2018-02-03T21:13:24.167Z,31.76
2018-02-03T21:15:54.556Z,31.57
2018-02-03T21:18:24.875Z,31.48
2018-02-03T21:20:55.130Z,31.90
2018-02-03T21:23:26.276Z,32.62
2018-02-03T21:25:56.561Z,32.88
2018-02-03T21:28:27.792Z,32.61
2018-02-03T21:30:58.037Z,33.10
2018-02-03T21:33:28.322Z,33.23
2018-02-03T21:35:58.756Z,33.37
2018-02-03T21:38:29.182Z,33.42
2018-02-03T21:40:59.535Z,33.61
2018-02-03T21:43:29.874Z,33.40
2018-02-03T21:46:00.199Z,33.10
2018-02-03T21:48:30.489Z,32.40
2018-02-03T21:51:00.799Z,32.15
2018-02-03T21:53:31.186Z,32.43
2018-02-03T21:56:01.444Z,32.55
2018-02-03T21:58:32.221Z,32.14
2018-02-03T22:01:03.358Z,32.16
2018-02-03T22:03:34.338Z,31.86
2018-02-03T22:06:05.675Z,32.02
2018-02-03T22:08:37.031Z,32.02
2018-02-03T22:11:08.404Z,32.06
2018-02-03T22:13:39.707Z,31.56
2018-02-03T22:16:11.040Z,31.70
2018-02-03T22:18:42.019Z,31.88
2018-02-03T22:21:13.335Z,31.94
2018-02-03T22:23:44.705Z,31.72
2018-02-03T22:26:15.836Z,32.05
2018-02-03T22:28:46.988Z,32.27
2018-02-03T22:31:18.358Z,31.82
2018-02-03T22:33:49.479Z,31.23
2018-02-03T22:36:20.605Z,31.93
2018-02-03T22:38:51.752Z,32.21
2018-02-03T22:41:22.701Z,32.02
2018-02-03T22:43:54.063Z,31.24
2018-02-03T22:46:24.972Z,31.45
2018-02-03T22:48:55.902Z,32.15
2018-02-03T22:51:26.436Z,31.86
2018-02-03T22:53:57.598Z,31.74
2018-02-03T22:56:28.767Z,31.48
2018-02-03T22:58:59.920Z,31.93
2018-02-03T23:01:31.052Z,31.80
2018-02-03T23:04:02.596Z,31.83
2018-02-03T23:06:33.580Z,31.60
2018-02-03T23:09:04.820Z,31.59
2018-02-03T23:14:00.987Z,31.86
2018-02-03T23:16:31.980Z,31.38
2018-02-03T23:19:04.390Z,31.66
2018-02-03T23:21:35.691Z,31.21
2018-02-03T23:24:06.796Z,31.50
2018-02-03T23:29:13.519Z,30.62
2018-02-03T23:31:44.748Z,30.95
2018-02-03T23:34:16.348Z,31.06
2018-02-03T23:36:47.490Z,30.17
2018-02-03T23:39:18.820Z,30.47
2018-02-03T23:41:49.995Z,30.63
2018-02-03T23:44:21.501Z,29.81
2018-02-03T23:46:53.082Z,29.84
2018-02-03T23:49:24.000Z,29.96
2018-02-03T23:51:55.313Z,29.67
2018-02-03T23:54:26.734Z,29.85
2018-02-03T23:57:06.375Z,29.45
2018-02-03T23:59:37.572Z,29.42
